createdAt,value
2022-10-01T00:00:57.271Z,97.11
2022-10-01T00:03:25.239Z,97.66
2022-10-01T00:06:11.472Z,97.64
2022-10-01T00:08:40.221Z,97.51
2022-10-01T00:11:08.543Z,97.39
2022-10-01T00:13:36.014Z,98.23
2022-10-01T00:16:08.800Z,97.97
2022-10-01T00:18:43.366Z,98.13
2022-10-01T00:21:16.909Z,97.99
2022-10-01T00:23:43.479Z,98.48
2022-10-01T00:26:15.418Z,98.42
2022-10-01T00:28:43.361Z,98.72
2022-10-01T00:31:10.427Z,98.74
2022-10-01T00:33:37.422Z,98.61
2022-10-01T00:36:06.309Z,99.12
2022-10-01T00:38:33.997Z,98.51
2022-10-01T00:41:01.122Z,98.85
2022-10-01T00:43:34.521Z,98.44
2022-10-01T00:46:14.098Z,98.29
2022-10-01T00:48:54.534Z,98.55
2022-10-01T00:51:21.127Z,98.53
2022-10-01T00:53:47.770Z,98.49
2022-10-01T00:56:14.373Z,98.04
2022-10-01T00:58:42.021Z,98.20
2022-10-01T01:01:08.549Z,98.34
2022-10-01T01:03:34.998Z,98.52
2022-10-01T01:06:01.471Z,98.90
2022-10-01T01:08:29.215Z,98.73
2022-10-01T01:11:23.142Z,98.70
2022-10-01T01:14:02.617Z,99.21
2022-10-01T01:16:39.233Z,99.34
2022-10-01T01:19:27.616Z,99.32
2022-10-01T01:22:00.317Z,98.28
2022-10-01T01:24:33.884Z,99.01
2022-10-01T01:27:25.252Z,99.28
2022-10-01T01:30:09.065Z,99.39
2022-10-01T01:32:54.085Z,98.76
2022-10-01T01:35:31.630Z,98.54
2022-10-01T01:38:03.151Z,98.76
2022-10-01T01:40:32.437Z,99.00
2022-10-01T01:43:05.578Z,99.25
2022-10-01T01:45:35.368Z,98.91
2022-10-01T01:48:03.707Z,99.70
2022-10-01T01:50:34.367Z,99.53
2022-10-01T01:53:00.825Z,99.50
2022-10-01T01:55:30.946Z,100.00
2022-10-01T01:57:57.799Z,100.00
2022-10-01T02:00:24.295Z,100.00
2022-10-01T02:02:53.617Z,100.00
2022-10-01T02:05:28.558Z,100.00
2022-10-01T02:08:31.274Z,100.00
2022-10-01T02:11:21.667Z,99.90
2022-10-01T02:14:06.531Z,100.00
2022-10-01T02:17:20.370Z,100.00
2022-10-01T02:19:57.074Z,100.00
2022-10-01T02:22:38.250Z,100.00
2022-10-01T02:25:06.911Z,100.00
2022-10-01T02:27:56.148Z,100.00
2022-10-01T02:30:22.881Z,100.00
2022-10-01T02:32:54.158Z,100.00
2022-10-01T02:35:22.101Z,100.00
2022-10-01T02:37:51.828Z,100.00
2022-10-01T02:40:26.141Z,100.00
2022-10-01T02:42:57.424Z,100.00
2022-10-01T02:45:26.370Z,100.00
2022-10-01T02:48:06.310Z,100.00
2022-10-01T02:50:42.111Z,100.00
2022-10-01T02:53:37.768Z,100.00
2022-10-01T02:56:06.455Z,100.00
2022-10-01T02:58:33.027Z,100.00
2022-10-01T03:00:59.625Z,100.00
2022-10-01T03:03:27.371Z,100.00
2022-10-01T03:05:53.887Z,100.00
2022-10-01T03:08:20.345Z,100.00
2022-10-01T03:10:47.084Z,100.00
2022-10-01T03:13:13.875Z,100.00
2022-10-01T03:15:40.432Z,100.00
2022-10-01T03:18:07.137Z,100.00
2022-10-01T03:20:33.745Z,100.00
2022-10-01T03:23:00.333Z,100.00
2022-10-01T03:25:26.744Z,100.00
2022-10-01T03:27:53.266Z,99.89
2022-10-01T03:30:22.812Z,100.00
2022-10-01T03:32:52.531Z,100.00
2022-10-01T03:35:23.180Z,100.00
2022-10-01T03:37:53.072Z,100.00
2022-10-01T03:40:22.525Z,100.00
2022-10-01T03:42:50.039Z,100.00
2022-10-01T03:45:16.550Z,100.00
2022-10-01T03:47:42.979Z,100.00
2022-10-01T03:50:09.464Z,100.00
2022-10-01T03:52:36.372Z,100.00
2022-10-01T03:55:02.968Z,100.00
2022-10-01T03:57:29.445Z,100.00
2022-10-01T03:59:56.147Z,100.00
2022-10-01T04:02:22.759Z,100.00
2022-10-01T04:04:52.374Z,100.00
2022-10-01T04:07:21.076Z,100.00
2022-10-01T04:09:47.654Z,100.00
2022-10-01T04:12:14.257Z,100.00
2022-10-01T04:14:40.665Z,100.00
2022-10-01T04:17:07.230Z,100.00
2022-10-01T04:19:33.639Z,100.00
2022-10-01T04:22:00.103Z,100.00
2022-10-01T04:24:26.687Z,100.00
2022-10-01T04:26:53.285Z,100.00
2022-10-01T04:29:22.594Z,100.00
2022-10-01T04:31:56.562Z,100.00
2022-10-01T04:34:42.938Z,99.98
2022-10-01T04:37:09.533Z,99.78
2022-10-01T04:39:35.965Z,99.88
2022-10-01T04:42:02.560Z,99.73
2022-10-01T04:44:30.081Z,99.81
2022-10-01T04:46:56.940Z,100.00
2022-10-01T04:49:23.604Z,100.00
2022-10-01T04:51:50.165Z,100.00
2022-10-01T04:54:16.741Z,100.00
2022-10-01T04:56:43.107Z,100.00
2022-10-01T04:59:09.815Z,100.00
2022-10-01T05:01:36.893Z,100.00
2022-10-01T05:04:03.733Z,100.00
2022-10-01T05:06:30.261Z,100.00
2022-10-01T05:08:56.811Z,100.00
2022-10-01T05:11:23.384Z,100.00
2022-10-01T05:13:52.973Z,100.00
2022-10-01T05:16:22.745Z,100.00
2022-10-01T05:18:50.364Z,100.00
2022-10-01T05:21:16.834Z,100.00
2022-10-01T05:23:43.196Z,100.00
2022-10-01T05:26:09.798Z,100.00
2022-10-01T05:28:36.636Z,100.00
2022-10-01T05:31:03.929Z,100.00
2022-10-01T05:33:31.134Z,100.00
2022-10-01T05:35:58.021Z,100.00
2022-10-01T05:38:24.970Z,100.00
2022-10-01T05:40:51.532Z,100.00
2022-10-01T05:43:19.111Z,100.00
2022-10-01T05:45:45.637Z,100.00
2022-10-01T05:48:12.775Z,100.00
2022-10-01T05:50:40.342Z,100.00
2022-10-01T05:53:08.546Z,100.00
2022-10-01T05:55:35.011Z,100.00
2022-10-01T05:58:03.394Z,100.00
2022-10-01T06:00:31.071Z,100.00
2022-10-01T06:02:58.969Z,100.00
2022-10-01T06:05:26.397Z,100.00
2022-10-01T06:07:53.546Z,100.00
2022-10-01T06:10:21.601Z,100.00
2022-10-01T06:12:48.798Z,100.00
2022-10-01T06:15:16.240Z,100.00
2022-10-01T06:17:45.785Z,100.00
2022-10-01T06:20:14.850Z,100.00
2022-10-01T06:22:43.001Z,100.00
2022-10-01T06:25:15.589Z,100.00
2022-10-01T06:27:42.021Z,100.00
2022-10-01T06:30:09.039Z,100.00
2022-10-01T06:32:35.689Z,100.00
2022-10-01T06:35:03.384Z,100.00
2022-10-01T06:37:29.911Z,100.00
2022-10-01T06:39:56.442Z,100.00
2022-10-01T06:42:22.864Z,100.00
2022-10-01T06:44:50.645Z,100.00
2022-10-01T06:47:17.124Z,100.00
2022-10-01T06:49:47.325Z,100.00
2022-10-01T06:52:32.974Z,100.00
2022-10-01T06:55:01.278Z,100.00
2022-10-01T06:57:29.190Z,100.00
2022-10-01T06:59:56.010Z,100.00
2022-10-01T07:02:28.019Z,99.79
2022-10-01T07:05:01.127Z,99.60
2022-10-01T07:07:31.034Z,97.31
2022-10-01T07:10:10.548Z,97.62
2022-10-01T07:12:37.840Z,96.06
2022-10-01T07:15:06.314Z,96.33
2022-10-01T07:17:35.934Z,95.09
2022-10-01T07:20:02.948Z,96.33
2022-10-01T07:22:29.465Z,97.23
2022-10-01T07:24:56.010Z,96.28
2022-10-01T07:27:22.715Z,96.98
2022-10-01T07:29:49.942Z,96.98
2022-10-01T07:32:16.683Z,97.07
2022-10-01T07:34:44.074Z,97.36
2022-10-01T07:37:11.257Z,98.10
2022-10-01T07:39:37.942Z,98.21
2022-10-01T07:42:04.890Z,98.54
2022-10-01T07:44:31.397Z,98.85
2022-10-01T07:46:58.107Z,98.69
2022-10-01T07:49:25.256Z,98.80
2022-10-01T07:51:53.256Z,98.38
2022-10-01T07:54:22.535Z,97.87
2022-10-01T07:56:52.901Z,97.78
2022-10-01T07:59:34.892Z,98.21
2022-10-01T08:02:01.559Z,97.79
2022-10-01T08:04:46.785Z,97.55
2022-10-01T08:07:15.254Z,97.79
2022-10-01T08:09:41.746Z,97.46
2022-10-01T08:12:08.449Z,96.95
2022-10-01T08:14:35.549Z,97.21
2022-10-01T08:17:02.258Z,96.82
2022-10-01T08:19:29.354Z,97.22
2022-10-01T08:21:55.840Z,97.20
2022-10-01T08:24:22.303Z,96.42
2022-10-01T08:26:54.601Z,96.62
2022-10-01T08:32:32.882Z,95.72
2022-10-01T08:34:59.932Z,95.95
2022-10-01T08:37:27.855Z,95.91
2022-10-01T08:39:55.624Z,95.49
2022-10-01T08:42:34.146Z,94.02
2022-10-01T08:45:26.680Z,93.87
2022-10-01T08:48:12.446Z,93.03
2022-10-01T08:50:47.175Z,93.11
2022-10-01T08:53:48.012Z,91.90
2022-10-01T08:56:29.436Z,94.86
2022-10-01T08:59:04.254Z,95.42
2022-10-01T09:01:31.400Z,93.78
2022-10-01T09:03:59.434Z,92.67
2022-10-01T09:06:27.588Z,92.76
2022-10-01T09:09:13.753Z,91.42
2022-10-01T09:12:07.599Z,89.21
2022-10-01T09:15:10.593Z,87.46
2022-10-01T09:18:07.529Z,87.81
2022-10-01T09:20:45.201Z,90.91
2022-10-01T09:23:31.674Z,91.78
2022-10-01T09:26:04.997Z,90.28
2022-10-01T09:28:34.790Z,91.64
2022-10-01T09:31:18.785Z,90.03
2022-10-01T09:34:12.408Z,89.45
2022-10-01T09:37:08.657Z,89.70
2022-10-01T09:39:44.702Z,88.21
2022-10-01T09:42:11.172Z,88.39
2022-10-01T09:44:37.873Z,87.09
2022-10-01T09:47:21.133Z,86.68
2022-10-01T09:49:49.836Z,86.60
2022-10-01T09:52:34.508Z,86.35
2022-10-01T09:55:19.870Z,84.68
2022-10-01T09:58:01.007Z,84.32
2022-10-01T10:00:27.820Z,84.28
2022-10-01T10:02:56.228Z,85.01
2022-10-01T10:05:28.353Z,86.52
2022-10-01T10:08:03.027Z,85.92
2022-10-01T10:10:39.345Z,85.98
2022-10-01T10:13:27.282Z,85.83
2022-10-01T10:15:59.743Z,86.67
2022-10-01T10:18:35.577Z,86.84
2022-10-01T10:21:07.988Z,86.19
2022-10-01T10:23:34.824Z,86.20
2022-10-01T10:26:07.299Z,84.59
2022-10-01T10:28:45.979Z,84.84
2022-10-01T10:31:19.965Z,84.68
2022-10-01T10:33:51.573Z,85.00
2022-10-01T10:36:21.096Z,86.19
2022-10-01T10:38:51.000Z,85.62
2022-10-01T10:41:25.899Z,84.19
2022-10-01T10:44:03.543Z,82.17
2022-10-01T10:46:35.392Z,79.87
2022-10-01T10:49:10.427Z,80.84
2022-10-01T10:51:44.948Z,81.89
2022-10-01T10:54:31.957Z,80.21
2022-10-01T10:57:02.116Z,81.69
2022-10-01T10:59:33.252Z,80.30
2022-10-01T11:02:01.921Z,79.58
2022-10-01T11:04:39.508Z,80.48
2022-10-01T11:07:06.287Z,81.16
2022-10-01T11:10:10.368Z,82.21
2022-10-01T11:13:09.160Z,81.57
2022-10-01T11:16:00.579Z,80.29
2022-10-01T11:18:47.316Z,79.72
2022-10-01T11:21:50.831Z,80.35
2022-10-01T11:24:41.270Z,78.74
2022-10-01T11:27:29.746Z,79.94
2022-10-01T11:30:09.579Z,78.05
2022-10-01T11:32:46.081Z,79.83
2022-10-01T11:35:42.617Z,77.64
2022-10-01T11:38:41.777Z,76.34
2022-10-01T11:41:23.629Z,76.79
2022-10-01T11:43:54.232Z,77.56
2022-10-01T11:46:35.096Z,76.46
2022-10-01T11:49:31.953Z,76.30
2022-10-01T11:52:21.979Z,75.56
2022-10-01T11:55:28.410Z,74.37
2022-10-01T11:58:19.744Z,74.20
2022-10-01T12:00:56.990Z,72.58
2022-10-01T12:03:28.673Z,73.59
2022-10-01T12:05:57.845Z,74.54
2022-10-01T12:08:32.879Z,74.17
2022-10-01T12:11:22.053Z,75.64
2022-10-01T12:13:56.949Z,75.32
2022-10-01T12:16:54.157Z,76.58
2022-10-01T12:19:42.712Z,74.47
2022-10-01T12:22:24.740Z,74.02
2022-10-01T12:24:52.592Z,73.08
2022-10-01T12:27:50.222Z,72.96
2022-10-01T12:30:25.061Z,73.55
2022-10-01T12:33:31.286Z,73.29
2022-10-01T12:35:57.718Z,72.79
2022-10-01T12:38:51.110Z,73.82
2022-10-01T12:42:08.198Z,74.08
2022-10-01T12:44:53.630Z,74.27
2022-10-01T12:47:35.305Z,73.68
2022-10-01T12:50:20.880Z,74.52
2022-10-01T12:53:03.540Z,72.25
2022-10-01T12:56:02.374Z,73.34
2022-10-01T12:58:46.915Z,73.19
2022-10-01T13:01:50.657Z,74.94
2022-10-01T13:04:55.379Z,72.37
2022-10-01T13:07:39.740Z,74.39
2022-10-01T13:10:35.025Z,73.90
2022-10-01T13:13:13.776Z,74.17
2022-10-01T13:15:44.657Z,73.50
2022-10-01T13:18:51.166Z,75.73
2022-10-01T13:21:26.827Z,73.81
2022-10-01T13:24:11.005Z,71.20
2022-10-01T13:26:50.552Z,72.29
2022-10-01T13:29:32.882Z,71.39
2022-10-01T13:32:02.027Z,71.63
2022-10-01T13:34:43.303Z,72.28
2022-10-01T13:37:19.170Z,73.76
2022-10-01T13:39:47.314Z,73.46
2022-10-01T13:42:42.129Z,73.61
2022-10-01T13:45:23.895Z,74.43
2022-10-01T13:48:16.672Z,74.86
2022-10-01T13:51:03.825Z,71.89
2022-10-01T13:53:38.084Z,71.74
2022-10-01T13:56:05.845Z,71.60
2022-10-01T13:58:34.334Z,72.70
2022-10-01T14:01:04.041Z,73.82
2022-10-01T14:03:45.232Z,74.58
2022-10-01T14:06:53.750Z,74.93
2022-10-01T14:09:28.261Z,75.89
2022-10-01T14:16:21.425Z,71.88
2022-10-01T14:18:50.068Z,70.20
2022-10-01T14:21:29.478Z,71.68
2022-10-01T14:24:14.253Z,71.68
2022-10-01T14:26:59.632Z,71.57
2022-10-01T14:29:50.061Z,69.69
2022-10-01T14:32:51.041Z,68.68
2022-10-01T14:35:23.456Z,68.10
2022-10-01T14:37:51.513Z,67.86
2022-10-01T14:40:22.686Z,68.02
2022-10-01T14:43:00.415Z,69.33
2022-10-01T14:45:27.612Z,69.85
2022-10-01T14:48:06.030Z,69.36
2022-10-01T14:50:37.978Z,68.07
2022-10-01T14:53:06.356Z,68.94
2022-10-01T14:55:35.146Z,69.66
2022-10-01T14:58:11.123Z,69.03
2022-10-01T15:00:39.010Z,70.25
2022-10-01T15:03:15.077Z,70.25
2022-10-01T15:05:42.839Z,69.01
2022-10-01T15:08:17.834Z,69.33
2022-10-01T15:10:55.276Z,68.81
2022-10-01T15:13:29.731Z,69.64
2022-10-01T15:15:56.387Z,70.77
2022-10-01T15:18:24.208Z,70.47
2022-10-01T15:21:00.370Z,71.36
2022-10-01T15:23:29.412Z,71.75
2022-10-01T15:26:00.148Z,72.69
2022-10-01T15:28:31.747Z,71.85
2022-10-01T15:31:01.056Z,71.14
2022-10-01T15:33:30.957Z,71.24
2022-10-01T15:36:12.507Z,69.58
2022-10-01T15:38:42.167Z,69.30
2022-10-01T15:41:31.513Z,69.50
2022-10-01T15:44:04.625Z,71.42
2022-10-01T15:46:34.886Z,71.33
2022-10-01T15:49:12.409Z,72.51
2022-10-01T15:52:07.050Z,73.22
2022-10-01T15:54:34.354Z,72.22
2022-10-01T15:57:02.763Z,72.09
2022-10-01T15:59:30.392Z,72.55
2022-10-01T16:01:57.483Z,72.47
2022-10-01T16:04:24.124Z,72.49
2022-10-01T16:06:52.003Z,72.78
2022-10-01T16:09:22.995Z,73.88
2022-10-01T16:11:56.747Z,73.99
2022-10-01T16:14:55.903Z,74.47
2022-10-01T16:17:32.427Z,74.25
2022-10-01T16:20:01.686Z,73.83
2022-10-01T16:22:32.293Z,74.08
2022-10-01T16:25:01.729Z,74.73
2022-10-01T16:27:30.311Z,75.19
2022-10-01T16:30:12.295Z,74.77
2022-10-01T16:32:38.753Z,75.62
2022-10-01T16:35:25.318Z,75.86
2022-10-01T16:37:55.065Z,75.70
2022-10-01T16:40:25.280Z,75.75
2022-10-01T16:42:52.833Z,76.62
2022-10-01T16:45:24.812Z,76.56
2022-10-01T16:47:59.010Z,77.53
2022-10-01T16:50:25.806Z,76.71
2022-10-01T16:52:55.982Z,76.26
2022-10-01T16:55:31.348Z,76.84
2022-10-01T16:57:58.642Z,76.95
2022-10-01T17:00:27.867Z,77.03
2022-10-01T17:02:56.223Z,78.10
2022-10-01T17:05:30.498Z,77.56
2022-10-01T17:07:59.260Z,76.43
2022-10-01T17:10:25.823Z,77.17
2022-10-01T17:12:52.534Z,78.44
2022-10-01T17:15:23.302Z,79.02
2022-10-01T17:17:51.409Z,76.92
2022-10-01T17:20:17.779Z,77.43
2022-10-01T17:22:44.723Z,78.02
2022-10-01T17:25:20.570Z,78.75
2022-10-01T17:27:50.980Z,78.75
2022-10-01T17:30:17.737Z,79.00
2022-10-01T17:32:44.821Z,80.74
2022-10-01T17:35:13.094Z,80.72
2022-10-01T17:37:40.581Z,80.52
2022-10-01T17:40:08.224Z,81.15
2022-10-01T17:42:35.681Z,81.40
2022-10-01T17:45:04.745Z,82.44
2022-10-01T17:47:31.641Z,82.75
2022-10-01T17:49:58.264Z,82.01
2022-10-01T17:52:24.759Z,81.64
2022-10-01T17:54:51.375Z,81.84
2022-10-01T17:57:20.441Z,82.15
2022-10-01T17:59:46.939Z,83.23
2022-10-01T18:02:39.929Z,82.54
2022-10-01T18:05:08.395Z,82.63
2022-10-01T18:07:39.025Z,82.78
2022-10-01T18:10:07.182Z,83.17
2022-10-01T18:12:33.870Z,82.06
2022-10-01T18:15:01.246Z,81.03
2022-10-01T18:17:28.270Z,81.77
2022-10-01T18:19:54.901Z,81.13
2022-10-01T18:22:22.369Z,81.73
2022-10-01T18:24:50.969Z,81.88
2022-10-01T18:27:17.576Z,82.33
2022-10-01T18:29:44.039Z,82.68
2022-10-01T18:32:25.790Z,84.69
2022-10-01T18:34:59.004Z,84.70
2022-10-01T18:37:40.150Z,84.12
2022-10-01T18:40:15.936Z,84.85
2022-10-01T18:42:54.428Z,85.05
2022-10-01T18:45:36.953Z,84.36
2022-10-01T18:48:54.569Z,86.00
2022-10-01T18:51:40.410Z,86.26
2022-10-01T18:54:36.841Z,87.97
2022-10-01T18:57:22.964Z,87.47
2022-10-01T19:00:03.873Z,87.83
2022-10-01T19:02:50.510Z,88.15
2022-10-01T19:05:38.586Z,88.00
2022-10-01T19:08:13.394Z,89.25
2022-10-01T19:10:55.122Z,89.45
2022-10-01T19:13:21.601Z,89.88
2022-10-01T19:15:54.097Z,90.11
2022-10-01T19:18:45.522Z,89.92
2022-10-01T19:21:32.555Z,89.83
2022-10-01T19:24:11.542Z,90.04
2022-10-01T19:26:53.727Z,90.36
2022-10-01T19:29:46.294Z,90.64
2022-10-01T19:32:15.217Z,90.46
2022-10-01T19:35:00.027Z,90.57
2022-10-01T19:37:36.430Z,90.38
2022-10-01T19:40:13.904Z,90.28
2022-10-01T19:42:44.874Z,90.12
2022-10-01T19:45:35.133Z,89.74
2022-10-01T19:48:04.473Z,89.75
2022-10-01T19:50:34.164Z,89.78
2022-10-01T19:53:03.287Z,89.92
2022-10-01T19:55:38.434Z,90.09
2022-10-01T19:58:18.988Z,90.21
2022-10-01T20:00:51.214Z,90.00
2022-10-01T20:03:26.085Z,89.71
2022-10-01T20:06:00.465Z,89.94
2022-10-01T20:08:29.882Z,90.07
2022-10-01T20:11:11.027Z,90.14
2022-10-01T20:14:05.826Z,90.38
2022-10-01T20:16:51.474Z,90.38
2022-10-01T20:19:53.854Z,90.54
2022-10-01T20:22:32.013Z,90.28
2022-10-01T20:25:24.378Z,90.09
2022-10-01T20:28:00.919Z,89.86
2022-10-01T20:30:33.241Z,90.23
2022-10-01T20:33:27.576Z,89.89
2022-10-01T20:36:01.491Z,90.39
2022-10-01T20:38:34.905Z,90.28
2022-10-01T20:41:09.433Z,90.31
2022-10-01T20:43:51.836Z,90.36
2022-10-01T20:46:35.384Z,90.13
2022-10-01T20:49:06.628Z,90.18
2022-10-01T20:51:45.970Z,89.93
2022-10-01T20:54:22.592Z,90.18
2022-10-01T20:57:03.677Z,90.13
2022-10-01T20:59:36.673Z,89.89
2022-10-01T21:02:26.447Z,90.03
2022-10-01T21:05:06.391Z,89.93
2022-10-01T21:07:39.103Z,89.78
2022-10-01T21:10:36.051Z,89.93
2022-10-01T21:13:13.766Z,89.93
2022-10-01T21:16:09.575Z,89.92
2022-10-01T21:18:51.300Z,89.94
2022-10-01T21:21:43.550Z,90.06
2022-10-01T21:24:34.449Z,90.31
2022-10-01T21:27:20.948Z,90.69
2022-10-01T21:30:06.125Z,90.73
2022-10-01T21:33:06.080Z,90.68
2022-10-01T21:35:51.802Z,90.69
2022-10-01T21:38:36.458Z,90.57
2022-10-01T21:41:05.784Z,90.89
2022-10-01T21:43:56.724Z,91.36
2022-10-01T21:46:40.099Z,91.57
2022-10-01T21:49:17.778Z,92.04
2022-10-01T21:52:03.827Z,92.20
2022-10-01T21:54:50.210Z,92.17
2022-10-01T21:57:28.488Z,92.36
2022-10-01T22:00:18.970Z,92.14
2022-10-01T22:03:00.299Z,92.13
2022-10-01T22:05:56.824Z,92.11
2022-10-01T22:08:29.176Z,92.07
2022-10-01T22:11:00.564Z,91.90
2022-10-01T22:13:34.406Z,92.37
2022-10-01T22:16:07.430Z,91.23
2022-10-01T22:18:39.786Z,91.37
2022-10-01T22:21:12.577Z,92.75
2022-10-01T22:23:50.865Z,86.37
2022-10-01T22:26:23.173Z,84.10
2022-10-01T22:28:55.806Z,83.07
2022-10-01T22:31:27.604Z,84.99
2022-10-01T22:34:09.392Z,85.83
2022-10-01T22:36:50.844Z,88.64
2022-10-01T22:39:26.271Z,89.16
2022-10-01T22:41:56.350Z,90.01
2022-10-01T22:44:23.527Z,89.49
2022-10-01T22:47:21.783Z,91.56
2022-10-01T22:50:16.208Z,92.09
2022-10-01T22:53:08.500Z,92.40
2022-10-01T22:55:53.812Z,92.49
2022-10-01T22:59:03.345Z,94.08
2022-10-01T23:02:10.033Z,95.17
2022-10-01T23:05:19.901Z,95.38
2022-10-01T23:07:52.946Z,95.79
2022-10-01T23:10:33.590Z,96.28
2022-10-01T23:13:34.014Z,96.44
2022-10-01T23:16:16.261Z,96.50
2022-10-01T23:19:15.021Z,96.29
2022-10-01T23:22:04.361Z,96.26
2022-10-01T23:24:39.012Z,96.13
2022-10-01T23:27:38.141Z,95.88
2022-10-01T23:30:14.210Z,95.47
2022-10-01T23:32:56.922Z,95.68
2022-10-01T23:35:46.738Z,96.14
2022-10-01T23:38:30.769Z,96.17
2022-10-01T23:41:09.218Z,96.08
2022-10-01T23:43:50.660Z,96.02
2022-10-01T23:46:27.255Z,95.45
2022-10-01T23:49:14.344Z,95.57
2022-10-01T23:51:59.092Z,95.52
2022-10-01T23:54:56.140Z,95.27
2022-10-01T23:57:28.296Z,94.90
